createdAt,value
2022-08-28T00:00:51.552Z,3.40
2022-08-28T00:03:19.699Z,3.03
2022-08-28T00:05:47.456Z,3.05
2022-08-28T00:08:16.789Z,2.70
2022-08-28T00:10:45.341Z,3.15
2022-08-28T00:13:18.993Z,2.88
2022-08-28T00:15:47.781Z,3.10
2022-08-28T00:18:15.450Z,2.53
2022-08-28T00:20:43.514Z,2.70
2022-08-28T00:23:11.210Z,3.20
2022-08-28T00:25:38.878Z,3.00
2022-08-28T00:28:08.837Z,2.78
2022-08-28T00:30:42.646Z,2.88
2022-08-28T00:33:15.243Z,3.38
2022-08-28T00:35:43.617Z,3.03
2022-08-28T00:38:12.020Z,2.75
2022-08-28T00:40:42.812Z,3.58
2022-08-28T00:43:12.737Z,3.28
2022-08-28T00:45:40.448Z,3.47
2022-08-28T00:48:08.519Z,3.10
2022-08-28T00:51:00.412Z,3.08
2022-08-28T00:53:30.171Z,3.25
2022-08-28T00:56:02.292Z,2.70
2022-08-28T00:58:32.150Z,2.70
2022-08-28T01:01:00.700Z,2.95
2022-08-28T01:03:29.409Z,3.28
2022-08-28T01:05:57.070Z,3.53
2022-08-28T01:08:24.870Z,2.78
2022-08-28T01:10:59.573Z,2.60
2022-08-28T01:13:27.371Z,3.20
2022-08-28T01:15:55.295Z,2.90
2022-08-28T01:18:23.180Z,2.60
2022-08-28T01:21:02.143Z,2.78
2022-08-28T01:23:48.652Z,2.90
2022-08-28T01:26:16.446Z,3.22
2022-08-28T01:28:44.202Z,3.05
2022-08-28T01:31:13.016Z,2.78
2022-08-28T01:33:42.464Z,3.22
2022-08-28T01:36:12.244Z,3.00
2022-08-28T01:38:41.378Z,2.83
2022-08-28T01:41:09.382Z,2.70
2022-08-28T01:43:36.974Z,3.10
2022-08-28T01:46:06.185Z,2.97
2022-08-28T01:48:36.101Z,2.60
2022-08-28T01:51:04.820Z,3.45
2022-08-28T01:53:33.097Z,3.55
2022-08-28T01:56:02.619Z,3.75
2022-08-28T01:58:37.885Z,3.50
2022-08-28T02:01:10.612Z,3.83
2022-08-28T02:03:38.467Z,2.95
2022-08-28T02:06:06.373Z,3.38
2022-08-28T02:08:34.066Z,3.03
2022-08-28T02:11:02.094Z,3.53
2022-08-28T02:13:29.719Z,3.00
2022-08-28T02:15:58.002Z,3.28
2022-08-28T02:18:25.679Z,3.00
2022-08-28T02:20:53.356Z,2.80
2022-08-28T02:23:20.994Z,3.53
2022-08-28T02:25:49.890Z,3.17
2022-08-28T02:28:18.570Z,3.15
2022-08-28T02:30:46.289Z,3.15
2022-08-28T02:33:13.950Z,3.40
2022-08-28T02:35:42.958Z,3.08
2022-08-28T02:38:10.971Z,3.45
2022-08-28T02:40:39.448Z,3.17
2022-08-28T02:43:07.366Z,3.13
2022-08-28T02:45:35.161Z,3.03
2022-08-28T02:48:02.974Z,2.97
2022-08-28T02:50:31.103Z,3.40
2022-08-28T02:52:59.470Z,3.60
2022-08-28T02:55:30.287Z,3.40
2022-08-28T02:58:01.327Z,2.97
2022-08-28T03:00:29.019Z,3.75
2022-08-28T03:02:56.685Z,3.50
2022-08-28T03:05:25.573Z,3.03
2022-08-28T03:07:54.025Z,3.10
2022-08-28T03:10:21.789Z,3.10
2022-08-28T03:12:49.364Z,3.75
2022-08-28T03:15:18.036Z,3.38
2022-08-28T03:17:45.697Z,3.22
2022-08-28T03:20:16.388Z,3.35
2022-08-28T03:23:02.606Z,3.58
2022-08-28T03:25:30.285Z,3.53
2022-08-28T03:27:57.940Z,3.30
2022-08-28T03:30:25.772Z,3.42
2022-08-28T03:32:53.992Z,3.95
2022-08-28T03:35:22.090Z,3.13
2022-08-28T03:37:49.930Z,3.58
2022-08-28T03:40:17.733Z,3.63
2022-08-28T03:42:49.496Z,3.67
2022-08-28T03:45:21.671Z,3.85
2022-08-28T03:47:50.798Z,3.28
2022-08-28T03:50:18.709Z,2.97
2022-08-28T03:52:47.644Z,3.30
2022-08-28T03:55:15.810Z,3.10
2022-08-28T03:57:43.451Z,3.08
2022-08-28T04:00:13.052Z,3.10
2022-08-28T04:02:41.736Z,3.85
2022-08-28T04:05:09.806Z,3.42
2022-08-28T04:07:37.997Z,3.42
2022-08-28T04:10:06.121Z,3.13
2022-08-28T04:12:35.235Z,3.03
2022-08-28T04:15:05.095Z,4.00
2022-08-28T04:17:34.462Z,3.58
2022-08-28T04:20:02.095Z,3.30
2022-08-28T04:22:30.355Z,3.85
2022-08-28T04:24:58.067Z,3.75
2022-08-28T04:27:25.655Z,3.50
2022-08-28T04:29:53.274Z,3.95
2022-08-28T04:32:22.461Z,3.63
2022-08-28T04:34:51.026Z,3.28
2022-08-28T04:37:19.290Z,3.92
2022-08-28T04:39:46.958Z,4.00
2022-08-28T04:42:14.854Z,3.50
2022-08-28T04:44:42.529Z,3.80
2022-08-28T04:47:10.253Z,3.65
2022-08-28T04:49:37.957Z,3.78
2022-08-28T04:52:05.720Z,3.33
2022-08-28T04:54:34.269Z,3.63
2022-08-28T04:57:02.759Z,3.65
2022-08-28T04:59:34.301Z,4.00
2022-08-28T05:02:02.073Z,3.47
2022-08-28T05:04:29.934Z,3.53
2022-08-28T05:06:57.762Z,3.65
2022-08-28T05:09:25.459Z,3.63
2022-08-28T05:11:53.498Z,3.85
2022-08-28T05:14:21.838Z,3.90
2022-08-28T05:16:51.276Z,3.88
2022-08-28T05:19:19.913Z,3.47
2022-08-28T05:21:48.044Z,4.57
2022-08-28T05:24:15.719Z,3.92
2022-08-28T05:26:43.651Z,4.30
2022-08-28T05:29:16.803Z,4.13
2022-08-28T05:31:46.219Z,3.72
2022-08-28T05:34:15.175Z,3.75
2022-08-28T05:36:43.180Z,3.80
2022-08-28T05:39:11.605Z,3.85
2022-08-28T05:41:41.170Z,3.50
2022-08-28T05:44:09.927Z,3.63
2022-08-28T05:46:39.741Z,3.50
2022-08-28T05:49:10.167Z,3.30
2022-08-28T05:51:40.201Z,3.33
2022-08-28T05:54:07.862Z,3.53
2022-08-28T05:56:36.905Z,3.40
2022-08-28T05:59:05.904Z,3.95
2022-08-28T06:01:35.196Z,3.85
2022-08-28T06:04:06.318Z,3.80
2022-08-28T06:06:34.966Z,4.10
2022-08-28T06:09:05.909Z,3.53
2022-08-28T06:11:33.946Z,3.80
2022-08-28T06:14:04.448Z,4.03
2022-08-28T06:16:32.852Z,3.60
2022-08-28T06:19:00.890Z,3.60
2022-08-28T06:21:29.049Z,3.70
2022-08-28T06:23:56.861Z,4.00
2022-08-28T06:26:24.535Z,3.50
2022-08-28T06:28:53.589Z,3.60
2022-08-28T06:31:23.177Z,3.42
2022-08-28T06:33:51.802Z,3.17
2022-08-28T06:36:19.405Z,3.10
2022-08-28T06:38:47.013Z,3.28
2022-08-28T06:41:15.584Z,3.70
2022-08-28T06:43:43.632Z,3.53
2022-08-28T06:46:11.330Z,4.20
2022-08-28T06:48:39.085Z,3.95
2022-08-28T06:51:08.004Z,3.83
2022-08-28T06:53:35.749Z,4.13
2022-08-28T06:56:08.597Z,4.50
2022-08-28T06:58:40.618Z,4.70
2022-08-28T07:01:10.612Z,4.57
2022-08-28T07:03:42.637Z,4.57
2022-08-28T07:06:13.018Z,3.90
2022-08-28T07:08:41.506Z,3.78
2022-08-28T07:11:09.774Z,3.70
2022-08-28T07:13:37.654Z,4.10
2022-08-28T07:16:05.409Z,3.63
2022-08-28T07:18:33.149Z,3.90
2022-08-28T07:21:00.843Z,3.58
2022-08-28T07:23:28.969Z,3.75
2022-08-28T07:25:56.708Z,3.55
2022-08-28T07:28:24.502Z,3.40
2022-08-28T07:31:00.147Z,3.55
2022-08-28T07:33:28.907Z,3.67
2022-08-28T07:35:57.401Z,3.67
2022-08-28T07:38:25.425Z,4.00
2022-08-28T07:40:53.533Z,4.15
2022-08-28T07:43:40.046Z,4.00
2022-08-28T07:46:09.216Z,4.07
2022-08-28T07:48:37.600Z,5.10
2022-08-28T07:51:06.180Z,4.90
2022-08-28T07:53:36.490Z,3.58
2022-08-28T07:56:05.186Z,3.97
2022-08-28T07:58:33.265Z,3.60
2022-08-28T08:01:01.400Z,4.60
2022-08-28T08:03:30.580Z,4.18
2022-08-28T08:05:59.824Z,4.40
2022-08-28T08:08:27.548Z,5.57
2022-08-28T08:11:06.050Z,4.13
2022-08-28T08:13:34.933Z,4.03
2022-08-28T08:16:04.046Z,4.43
2022-08-28T08:18:32.014Z,4.05
2022-08-28T08:20:59.698Z,3.90
2022-08-28T08:23:27.423Z,4.15
2022-08-28T08:25:59.100Z,3.65
2022-08-28T08:28:28.466Z,4.28
2022-08-28T08:31:05.157Z,4.38
2022-08-28T08:33:33.187Z,4.20
2022-08-28T08:36:01.109Z,4.45
2022-08-28T08:38:32.193Z,5.00
2022-08-28T08:41:00.437Z,4.72
2022-08-28T08:43:29.501Z,4.53
2022-08-28T08:45:57.182Z,4.40
2022-08-28T08:48:32.685Z,4.10
2022-08-28T08:51:03.805Z,4.03
2022-08-28T08:53:50.613Z,4.25
2022-08-28T08:56:21.719Z,4.25
2022-08-28T08:58:53.803Z,4.35
2022-08-28T09:01:21.803Z,4.40
2022-08-28T09:04:01.765Z,4.55
2022-08-28T09:06:48.371Z,4.85
2022-08-28T09:09:19.082Z,4.50
2022-08-28T09:11:56.564Z,4.57
2022-08-28T09:14:43.831Z,5.28
2022-08-28T09:17:13.105Z,4.75
2022-08-28T09:19:40.766Z,5.80
2022-08-28T09:22:08.499Z,5.70
2022-08-28T09:24:36.924Z,6.05
2022-08-28T09:27:12.290Z,5.20
2022-08-28T09:29:43.317Z,6.25
2022-08-28T09:32:30.944Z,5.70
2022-08-28T09:35:04.059Z,6.43
2022-08-28T09:37:32.698Z,6.10
2022-08-28T09:40:14.858Z,5.90
2022-08-28T09:43:16.098Z,5.43
2022-08-28T09:45:43.780Z,7.90
2022-08-28T09:48:25.596Z,5.78
2022-08-28T09:51:03.582Z,5.63
2022-08-28T09:53:32.865Z,6.00
2022-08-28T09:56:01.486Z,6.00
2022-08-28T09:58:40.045Z,6.63
2022-08-28T10:01:27.963Z,6.95
2022-08-28T10:04:07.944Z,6.22
2022-08-28T10:06:37.133Z,6.28
2022-08-28T10:09:07.780Z,5.72
2022-08-28T10:11:55.837Z,5.95
2022-08-28T10:14:29.474Z,6.50
2022-08-28T10:17:07.392Z,6.55
2022-08-28T10:19:35.037Z,6.18
2022-08-28T10:22:17.961Z,6.70
2022-08-28T10:24:55.731Z,6.47
2022-08-28T10:27:26.628Z,6.40
2022-08-28T10:30:09.967Z,5.93
2022-08-28T10:32:43.315Z,6.72
2022-08-28T10:35:31.234Z,6.40
2022-08-28T10:38:13.662Z,6.45
2022-08-28T10:40:47.485Z,6.97
2022-08-28T10:43:19.300Z,5.82
2022-08-28T10:48:26.184Z,6.15
2022-08-28T10:50:56.494Z,6.57
2022-08-28T10:53:27.063Z,6.50
2022-08-28T10:56:04.045Z,6.70
2022-08-28T10:58:32.936Z,6.30
2022-08-28T11:01:03.941Z,7.53
2022-08-28T11:03:38.009Z,6.27
2022-08-28T11:06:16.752Z,5.53
2022-08-28T11:08:50.585Z,5.72
2022-08-28T11:11:38.113Z,5.93
2022-08-28T11:14:05.789Z,6.05
2022-08-28T11:16:33.455Z,6.65
2022-08-28T11:19:02.008Z,5.90
2022-08-28T11:21:31.213Z,6.28
2022-08-28T11:24:06.661Z,6.10
2022-08-28T11:26:39.551Z,5.70
2022-08-28T11:29:07.568Z,6.15
2022-08-28T11:31:36.752Z,6.63
2022-08-28T11:34:05.598Z,5.60
2022-08-28T11:36:33.349Z,5.57
2022-08-28T11:39:02.512Z,5.85
2022-08-28T11:41:34.673Z,5.75
2022-08-28T11:44:14.182Z,6.25
2022-08-28T11:46:46.152Z,5.35
2022-08-28T11:49:32.427Z,5.97
2022-08-28T11:52:18.434Z,5.68
2022-08-28T11:54:55.747Z,5.82
2022-08-28T11:57:26.501Z,5.10
2022-08-28T12:00:08.466Z,6.05
2022-08-28T12:02:43.070Z,6.32
2022-08-28T12:05:13.162Z,5.82
2022-08-28T12:07:42.744Z,6.68
2022-08-28T12:10:28.086Z,5.70
2022-08-28T12:12:55.723Z,6.40
2022-08-28T12:15:29.664Z,6.07
2022-08-28T12:18:04.997Z,6.10
2022-08-28T12:20:41.670Z,6.13
2022-08-28T12:23:24.567Z,5.45
2022-08-28T12:25:59.254Z,5.88
2022-08-28T12:28:37.984Z,5.47
2022-08-28T12:31:05.608Z,5.38
2022-08-28T12:33:39.925Z,5.90
2022-08-28T12:36:11.603Z,5.57
2022-08-28T12:41:14.805Z,5.65
2022-08-28T12:43:46.585Z,5.70
2022-08-28T12:46:23.419Z,5.30
2022-08-28T12:48:55.734Z,5.18
2022-08-28T12:51:25.599Z,5.15
2022-08-28T12:53:57.459Z,5.13
2022-08-28T12:56:26.169Z,5.63
2022-08-28T12:58:53.873Z,4.90
2022-08-28T13:01:30.172Z,4.60
2022-08-28T13:04:21.001Z,4.78
2022-08-28T13:06:48.668Z,5.15
2022-08-28T13:09:17.504Z,5.15
2022-08-28T13:11:46.946Z,4.70
2022-08-28T13:14:14.686Z,4.45
2022-08-28T13:16:44.629Z,5.07
2022-08-28T13:19:13.697Z,4.65
2022-08-28T13:21:47.226Z,5.40
2022-08-28T13:24:27.368Z,5.35
2022-08-28T13:27:07.102Z,5.10
2022-08-28T13:29:35.430Z,5.22
2022-08-28T13:32:05.422Z,4.63
2022-08-28T13:34:34.767Z,4.90
2022-08-28T13:37:14.980Z,4.18
2022-08-28T13:39:48.027Z,4.88
2022-08-28T13:42:18.022Z,4.55
2022-08-28T13:44:56.734Z,5.00
2022-08-28T13:47:25.347Z,4.15
2022-08-28T13:49:53.027Z,4.82
2022-08-28T13:52:20.633Z,4.40
2022-08-28T13:54:48.333Z,4.40
2022-08-28T13:57:16.130Z,3.72
2022-08-28T13:59:43.938Z,4.28
2022-08-28T14:02:31.915Z,4.47
2022-08-28T14:04:59.648Z,4.38
2022-08-28T14:07:27.382Z,4.43
2022-08-28T14:09:56.588Z,4.25
2022-08-28T14:12:31.343Z,4.78
2022-08-28T14:15:01.504Z,4.32
2022-08-28T14:17:29.271Z,4.75
2022-08-28T14:19:57.505Z,4.30
2022-08-28T14:22:25.180Z,4.63
2022-08-28T14:24:52.974Z,4.45
2022-08-28T14:27:20.762Z,4.68
2022-08-28T14:29:49.108Z,4.30
2022-08-28T14:32:16.845Z,4.80
2022-08-28T14:34:44.487Z,4.22
2022-08-28T14:37:12.473Z,4.43
2022-08-28T14:39:42.043Z,4.35
2022-08-28T14:42:12.996Z,4.53
2022-08-28T14:44:40.800Z,4.25
2022-08-28T14:47:08.722Z,4.78
2022-08-28T14:49:36.355Z,4.57
2022-08-28T14:52:04.626Z,4.30
2022-08-28T14:54:32.373Z,4.22
2022-08-28T14:56:59.994Z,4.93
2022-08-28T14:59:29.106Z,4.38
2022-08-28T15:02:00.423Z,4.47
2022-08-28T15:04:34.273Z,4.60
2022-08-28T15:07:02.993Z,4.30
2022-08-28T15:09:30.602Z,3.97
2022-08-28T15:11:58.266Z,4.55
2022-08-28T15:14:25.958Z,4.82
2022-08-28T15:16:53.641Z,4.72
2022-08-28T15:19:23.301Z,4.80
2022-08-28T15:21:53.006Z,4.45
2022-08-28T15:24:24.820Z,4.60
2022-08-28T15:26:52.426Z,4.82
2022-08-28T15:29:20.106Z,5.10
2022-08-28T15:31:49.148Z,4.90
2022-08-28T15:34:18.910Z,4.85
2022-08-28T15:36:54.624Z,4.63
2022-08-28T15:39:42.172Z,4.65
2022-08-28T15:42:10.305Z,4.38
2022-08-28T15:44:38.132Z,4.47
2022-08-28T15:47:06.220Z,5.10
2022-08-28T15:49:43.443Z,5.15
2022-08-28T15:52:18.571Z,5.40
2022-08-28T15:54:46.347Z,5.40
2022-08-28T15:57:14.028Z,5.35
2022-08-28T15:59:49.517Z,4.88
2022-08-28T16:02:22.332Z,4.57
2022-08-28T16:04:50.550Z,5.68
2022-08-28T16:07:18.796Z,5.88
2022-08-28T16:09:46.561Z,5.78
2022-08-28T16:12:14.658Z,5.53
2022-08-28T16:14:42.233Z,5.10
2022-08-28T16:17:10.725Z,5.55
2022-08-28T16:19:40.138Z,6.13
2022-08-28T16:22:08.721Z,5.30
2022-08-28T16:24:36.877Z,5.45
2022-08-28T16:27:06.397Z,5.78
2022-08-28T16:29:37.584Z,5.00
2022-08-28T16:32:05.876Z,5.20
2022-08-28T16:34:34.799Z,5.78
2022-08-28T16:37:02.681Z,5.30
2022-08-28T16:39:30.625Z,5.22
2022-08-28T16:41:58.406Z,5.32
2022-08-28T16:44:26.659Z,5.70
2022-08-28T16:46:55.405Z,5.00
2022-08-28T16:49:23.771Z,4.47
2022-08-28T16:51:51.628Z,5.35
2022-08-28T16:54:20.847Z,5.35
2022-08-28T16:56:48.628Z,4.65
2022-08-28T16:59:18.226Z,5.38
2022-08-28T17:01:45.967Z,5.65
2022-08-28T17:04:20.871Z,5.28
2022-08-28T17:06:48.568Z,5.28
2022-08-28T17:09:16.238Z,5.03
2022-08-28T17:11:43.843Z,5.10
2022-08-28T17:14:12.024Z,4.45
2022-08-28T17:16:40.242Z,4.95
2022-08-28T17:19:07.849Z,5.03
2022-08-28T17:21:54.291Z,4.63
2022-08-28T17:24:22.382Z,4.38
2022-08-28T17:26:50.077Z,4.25
2022-08-28T17:29:17.816Z,4.82
2022-08-28T17:31:45.673Z,4.47
2022-08-28T17:34:13.516Z,4.97
2022-08-28T17:36:42.388Z,4.57
2022-08-28T17:39:11.940Z,4.88
2022-08-28T17:41:40.801Z,4.75
2022-08-28T17:44:08.536Z,5.07
2022-08-28T17:46:37.966Z,5.72
2022-08-28T17:49:07.254Z,5.60
2022-08-28T17:51:43.470Z,5.72
2022-08-28T17:54:13.093Z,5.22
2022-08-28T17:56:41.019Z,6.22
2022-08-28T17:59:09.201Z,6.00
2022-08-28T18:01:37.508Z,7.40
2022-08-28T18:04:05.457Z,8.40
2022-08-28T18:06:33.232Z,6.93
2022-08-28T18:09:00.903Z,6.50
2022-08-28T18:11:28.970Z,6.18
2022-08-28T18:13:57.149Z,5.55
2022-08-28T18:16:30.366Z,5.88
2022-08-28T18:18:59.382Z,6.20
2022-08-28T18:21:27.063Z,5.78
2022-08-28T18:23:54.716Z,6.35
2022-08-28T18:26:22.367Z,5.90
2022-08-28T18:28:51.083Z,5.30
2022-08-28T18:31:19.176Z,5.97
2022-08-28T18:33:46.846Z,8.13
2022-08-28T18:36:15.184Z,7.15
2022-08-28T18:38:43.867Z,8.57
2022-08-28T18:41:12.167Z,7.50
2022-08-28T18:43:39.920Z,7.38
2022-08-28T18:46:10.624Z,7.30
2022-08-28T18:48:38.764Z,6.57
2022-08-28T18:51:07.755Z,6.82
2022-08-28T18:53:36.062Z,6.68
2022-08-28T18:56:04.522Z,6.88
2022-08-28T18:58:32.326Z,7.07
2022-08-28T19:01:01.355Z,7.47
2022-08-28T19:03:29.262Z,7.22
2022-08-28T19:05:57.237Z,6.10
2022-08-28T19:08:25.417Z,6.35
2022-08-28T19:10:53.967Z,7.10
2022-08-28T19:13:21.573Z,7.30
2022-08-28T19:15:53.263Z,6.80
2022-08-28T19:20:48.729Z,8.25
2022-08-28T19:23:17.769Z,7.68
2022-08-28T19:25:46.614Z,8.13
2022-08-28T19:28:14.331Z,8.02
2022-08-28T19:30:42.322Z,7.28
2022-08-28T19:33:12.554Z,7.35
2022-08-28T19:35:40.286Z,7.50
2022-08-28T19:38:08.128Z,7.32
2022-08-28T19:40:35.866Z,7.57
2022-08-28T19:43:03.555Z,7.53
2022-08-28T19:45:34.102Z,7.65
2022-08-28T19:48:01.828Z,7.93
2022-08-28T19:50:29.516Z,6.60
2022-08-28T19:52:57.137Z,7.05
2022-08-28T19:55:26.580Z,7.20
2022-08-28T19:57:54.720Z,7.30
2022-08-28T20:00:23.577Z,6.90
2022-08-28T20:02:52.414Z,7.07
2022-08-28T20:05:21.017Z,6.88
2022-08-28T20:07:48.958Z,6.15
2022-08-28T20:10:16.834Z,7.55
2022-08-28T20:12:48.545Z,6.53
2022-08-28T20:15:17.200Z,6.75
2022-08-28T20:17:49.393Z,6.05
2022-08-28T20:20:18.946Z,5.63
2022-08-28T20:22:46.589Z,5.93
2022-08-28T20:25:15.639Z,6.55
2022-08-28T20:27:43.305Z,6.45
2022-08-28T20:30:11.558Z,6.78
2022-08-28T20:32:40.414Z,5.60
2022-08-28T20:35:09.489Z,6.60
2022-08-28T20:37:45.011Z,7.03
2022-08-28T20:40:17.480Z,8.52
2022-08-28T20:42:45.477Z,6.45
2022-08-28T20:45:14.086Z,5.35
2022-08-28T20:47:41.832Z,5.10
2022-08-28T20:50:10.061Z,5.47
2022-08-28T20:52:37.838Z,8.63
2022-08-28T20:55:07.567Z,6.75
2022-08-28T20:57:35.299Z,5.80
2022-08-28T21:00:05.761Z,5.72
2022-08-28T21:02:33.602Z,4.97
2022-08-28T21:05:01.780Z,4.93
2022-08-28T21:07:29.588Z,5.13
2022-08-28T21:10:05.478Z,4.18
2022-08-28T21:12:38.767Z,5.60
2022-08-28T21:15:10.889Z,5.72
2022-08-28T21:17:38.793Z,4.63
2022-08-28T21:20:09.267Z,5.05
2022-08-28T21:22:38.401Z,4.95
2022-08-28T21:25:07.651Z,5.22
2022-08-28T21:27:35.694Z,4.55
2022-08-28T21:30:03.623Z,3.60
2022-08-28T21:32:32.742Z,3.10
2022-08-28T21:35:02.221Z,1.92
2022-08-28T21:37:31.194Z,1.60
2022-08-28T21:39:59.595Z,1.42
2022-08-28T21:42:27.708Z,1.80
2022-08-28T21:44:55.335Z,1.20
2022-08-28T21:47:23.805Z,1.38
2022-08-28T21:49:53.223Z,1.05
2022-08-28T21:52:22.047Z,1.65
2022-08-28T21:54:49.826Z,1.55
2022-08-28T21:57:17.788Z,1.17
2022-08-28T21:59:45.489Z,1.35
2022-08-28T22:02:13.216Z,1.30
2022-08-28T22:04:40.966Z,1.40
2022-08-28T22:07:11.153Z,1.58
2022-08-28T22:09:38.866Z,1.42
2022-08-28T22:12:08.968Z,1.40
2022-08-28T22:14:37.348Z,1.70
2022-08-28T22:17:10.665Z,1.67
2022-08-28T22:19:39.635Z,1.58
2022-08-28T22:22:26.165Z,1.45
2022-08-28T22:24:54.510Z,1.92
2022-08-28T22:27:22.235Z,1.90
2022-08-28T22:29:49.923Z,1.88
2022-08-28T22:32:18.258Z,1.40
2022-08-28T22:34:46.345Z,1.50
2022-08-28T22:37:14.330Z,1.58
2022-08-28T22:39:42.444Z,1.65
2022-08-28T22:42:10.492Z,1.50
2022-08-28T22:44:38.520Z,1.65
2022-08-28T22:47:07.287Z,1.10
2022-08-28T22:49:36.010Z,1.42
2022-08-28T22:52:10.259Z,1.20
2022-08-28T22:54:37.996Z,1.20
2022-08-28T22:57:06.003Z,1.33
2022-08-28T22:59:34.322Z,1.20
2022-08-28T23:02:03.730Z,1.60
2022-08-28T23:04:31.490Z,1.70
2022-08-28T23:06:59.148Z,1.35
2022-08-28T23:09:27.555Z,1.83
2022-08-28T23:11:55.278Z,1.75
2022-08-28T23:14:27.879Z,1.85
2022-08-28T23:16:55.931Z,1.90
2022-08-28T23:19:23.694Z,1.85
2022-08-28T23:21:51.544Z,1.83
2022-08-28T23:24:19.250Z,1.80
2022-08-28T23:26:47.145Z,2.03
2022-08-28T23:29:14.930Z,1.48
2022-08-28T23:31:42.901Z,1.88
2022-08-28T23:34:10.898Z,2.10
2022-08-28T23:36:39.392Z,2.00
2022-08-28T23:39:10.603Z,2.05
2022-08-28T23:41:38.245Z,2.30
2022-08-28T23:44:08.954Z,2.53
2022-08-28T23:46:37.282Z,2.08
2022-08-28T23:49:09.848Z,2.22
2022-08-28T23:51:37.909Z,1.88
2022-08-28T23:54:06.392Z,2.10
2022-08-28T23:56:34.530Z,2.40
2022-08-28T23:59:02.182Z,2.63
